Time;durP1;ratioP1;P1;durP2;ratioP2;P2;SDS_P1;SDS_P2;PMS_P1;PMS_P2;Temp;Humidity;BMP_temperature;BMP_pressure;BME280_temperature;BME280_humidity;BME280_pressure;Samples;Min_cycle;Max_cycle;Signal;HPM_P1;HPM_P2
2022/09/04 00:00:17;;;;;;;8.65;7.20;;;;;;;15.01;64.64;100294.87;1692613;80;22290;-68
2022/09/04 00:02:59;;;;;;;9.95;7.50;;;;;;;14.90;64.38;100289.26;1733272;80;20919;-68
2022/09/04 00:05:45;;;;;;;11.12;7.33;;;;;;;14.84;64.67;100294.39;1732210;80;21507;-67
2022/09/04 00:08:41;;;;;;;10.28;7.75;;;;;;;14.81;64.98;100288.42;1736658;80;21472;-68
2022/09/04 00:11:31;;;;;;;11.55;7.25;;;;;;;14.70;64.94;100291.13;1746706;80;21522;-68
2022/09/04 00:14:02;;;;;;;9.10;7.72;;;;;;;14.60;64.99;100289.88;1705086;81;21794;-67
2022/09/04 00:16:50;;;;;;;9.48;6.95;;;;;;;14.50;65.60;100292.05;1689475;83;21007;-67
2022/09/04 00:19:28;;;;;;;10.23;6.90;;;;;;;14.43;65.90;100291.11;1686264;83;28836;-67
2022/09/04 00:21:59;;;;;;;10.08;6.90;;;;;;;14.39;66.80;100295.25;1696797;83;21622;-68
2022/09/04 00:24:41;;;;;;;8.70;6.75;;;;;;;14.37;67.02;100302.41;1690361;83;21611;-68
2022/09/04 00:27:26;;;;;;;8.90;6.90;;;;;;;14.34;66.94;100297.72;1709271;81;21850;-68
2022/09/04 00:30:04;;;;;;;8.60;6.70;;;;;;;14.31;66.86;100297.86;1711422;81;21536;-69
2022/09/04 00:32:53;;;;;;;;;;;;;;;14.24;66.91;100305.69;1703413;81;21522;-67
2022/09/04 00:35:32;;;;;;;7.12;6.10;;;;;;;14.17;66.58;100301.17;1692686;83;20354;-67
2022/09/04 00:38:25;;;;;;;9.65;6.90;;;;;;;14.04;67.01;100303.53;1687809;83;21583;-68
2022/09/04 00:41:00;;;;;;;8.13;6.62;;;;;;;14.01;67.40;100304.54;1687432;83;22120;-68
2022/09/04 00:44:08;;;;;;;10.08;6.08;;;;;;;13.99;67.70;100314.33;1692699;83;21621;-67
2022/09/04 00:46:57;;;;;;;8.35;6.00;;;;;;;13.98;67.48;100307.31;1688139;83;21037;-67
2022/09/04 00:49:39;;;;;;;7.83;6.72;;;;;;;13.90;67.65;100313.88;1688684;83;21548;-69
2022/09/04 00:52:31;;;;;;;7.08;6.28;;;;;;;13.87;67.70;100312.23;1674016;84;21576;-69
2022/09/04 00:55:10;;;;;;;6.83;6.12;;;;;;;13.86;67.48;100309.19;1675276;83;21742;-66
2022/09/04 00:58:10;;;;;;;7.15;6.45;;;;;;;13.83;67.16;100308.03;1731890;80;21483;-66
2022/09/04 01:00:37;;;;;;;7.05;6.30;;;;;;;13.82;67.23;100307.61;1732077;80;21567;-66
2022/09/04 01:03:44;;;;;;;8.13;7.00;;;;;;;13.79;67.51;100303.34;1740458;80;21586;-65
2022/09/04 01:06:25;;;;;;;7.87;6.30;;;;;;;13.72;67.79;100307.66;1732026;80;26971;-66
2022/09/04 01:09:39;;;;;;;10.05;6.80;;;;;;;13.66;68.54;100308.79;1729536;81;21868;-66
2022/09/04 01:12:26;;;;;;;9.03;6.83;;;;;;;13.61;69.42;100309.45;1736738;79;21546;-67
2022/09/04 01:15:25;;;;;;;8.00;6.53;;;;;;;13.55;70.03;100310.58;1737617;80;20982;-67
2022/09/04 01:18:03;;;;;;;11.50;6.55;;;;;;;13.52;70.49;100309.38;1695293;83;21457;-65
2022/09/04 01:21:05;;;;;;;10.35;6.95;;;;;;;13.52;70.23;100310.70;1691041;82;21554;-65
2022/09/04 01:24:22;;;;;;;9.55;7.17;;;;;;;13.46;70.67;100308.81;1692722;82;21799;-64
2022/09/04 01:27:10;;;;;;;10.48;7.20;;;;;;;13.42;70.62;100312.90;1697682;83;20942;-64
2022/09/04 01:29:55;;;;;;;9.53;7.53;;;;;;;13.34;70.79;100312.86;1723026;81;21003;-64
2022/09/04 01:32:36;;;;;;;9.50;6.72;;;;;;;13.27;70.75;100312.70;1735301;80;21471;-64
2022/09/04 01:35:23;;;;;;;11.22;7.25;;;;;;;13.21;70.54;100312.50;1696404;83;21528;-64
2022/09/04 01:38:32;;;;;;;11.97;7.92;;;;;;;13.16;71.03;100307.39;1729549;80;22118;-64
2022/09/04 01:41:15;;;;;;;10.35;7.03;;;;;;;13.09;71.24;100306.41;1738151;82;21533;-64
2022/09/04 01:43:41;;;;;;;11.05;7.03;;;;;;;13.04;71.29;100304.83;1739328;81;21436;-64
2022/09/04 01:46:38;;;;;;;8.48;7.28;;;;;;;12.99;72.20;100304.16;1734035;80;21522;-64
2022/09/04 01:49:19;;;;;;;9.18;7.35;;;;;;;12.98;73.02;100306.88;1734761;80;21622;-64
2022/09/04 01:52:15;;;;;;;12.20;7.45;;;;;;;12.96;74.27;100302.10;1732788;80;21849;-65
2022/09/04 01:55:06;;;;;;;8.40;7.47;;;;;;;12.93;74.51;100298.30;1732325;80;21586;-64
2022/09/04 01:57:39;;;;;;;9.45;7.28;;;;;;;12.93;74.65;100300.93;1710436;81;21435;-64
2022/09/04 02:00:15;;;;;;;7.62;6.62;;;;;;;12.89;74.38;100298.88;1731096;81;21521;-65
2022/09/04 02:03:01;;;;;;;10.63;6.78;;;;;;;12.89;73.92;100298.88;1720448;82;21461;-65
2022/09/04 02:05:59;;;;;;;10.18;7.55;;;;;;;12.88;73.60;100300.26;1717896;81;21845;-64
2022/09/04 02:08:57;;;;;;;;;;;;;;;12.82;73.23;100296.09;1725959;80;21621;-65
2022/09/04 02:11:27;;;;;;;12.05;7.40;;;;;;;12.70;75.45;100301.89;1722654;80;20196;-65
2022/09/04 02:14:16;;;;;;;13.25;8.13;;;;;;;12.62;73.57;100303.50;1711247;80;21622;-66
2022/09/04 02:16:55;;;;;;;13.98;8.50;;;;;;;12.64;73.26;100309.60;1730832;82;21428;-65
2022/09/04 02:19:57;;;;;;;14.20;8.30;;;;;;;12.64;73.08;100305.64;1716322;81;21810;-65
2022/09/04 02:22:58;;;;;;;13.25;8.78;;;;;;;12.60;72.68;100310.19;1686983;84;21430;-67
2022/09/04 02:25:48;;;;;;;9.68;7.78;;;;;;;12.53;73.08;100307.86;1682765;84;21582;-67
2022/09/04 02:28:54;;;;;;;8.15;7.03;;;;;;;12.48;73.86;100309.34;1691634;84;21786;-67
2022/09/04 02:31:51;;;;;;;12.10;7.70;;;;;;;12.43;74.45;100308.66;1720362;81;21108;-66
2022/09/04 02:34:42;;;;;;;10.90;7.92;;;;;;;12.39;75.31;100305.75;1624945;87;21897;-65
2022/09/04 02:37:29;;;;;;;9.93;7.85;;;;;;;12.39;75.24;100305.75;1634354;87;21520;-66
2022/09/04 02:40:10;;;;;;;12.37;8.50;;;;;;;12.35;75.61;100298.42;1632131;87;21569;-64
2022/09/04 02:43:07;;;;;;;11.57;8.98;;;;;;;12.31;76.53;100307.84;1630705;86;21502;-65
2022/09/04 02:46:10;;;;;;;13.25;8.60;;;;;;;12.29;77.14;100305.73;1634893;87;21618;-65
2022/09/04 02:49:02;;;;;;;12.50;7.42;;;;;;;12.27;77.75;100309.27;1628284;87;21885;-65
2022/09/04 02:51:43;;;;;;;12.03;8.30;;;;;;;12.27;78.09;100303.15;1633895;87;21491;-65
2022/09/04 02:54:49;;;;;;;12.78;8.83;;;;;;;12.23;77.77;100307.68;1628105;87;20975;-67
2022/09/04 02:58:04;;;;;;;10.25;7.80;;;;;;;12.24;77.24;100308.09;1631906;87;21441;-65
2022/09/04 03:00:44;;;;;;;15.35;8.03;;;;;;;12.26;76.71;100308.89;1609972;87;21613;-67
2022/09/04 03:03:41;;;;;;;13.30;8.75;;;;;;;12.27;76.64;100312.38;1600622;87;22097;-66
2022/09/04 03:06:49;;;;;;;11.80;8.85;;;;;;;12.23;75.46;100312.10;1621102;86;21613;-65
2022/09/04 03:09:25;;;;;;;11.45;8.68;;;;;;;12.15;75.79;100312.41;1630179;87;21645;-65
2022/09/04 03:12:04;;;;;;;12.58;8.80;;;;;;;12.12;75.53;100313.83;1631254;86;21443;-66
2022/09/04 03:14:51;;;;;;;13.50;8.75;;;;;;;12.07;75.55;100310.06;1622916;87;21614;-67
2022/09/04 03:17:24;;;;;;;;;;;;;;;12.05;75.51;100311.91;1601937;89;21833;-66
2022/09/04 03:20:22;;;;;;;9.90;7.65;;;;;;;11.98;77.83;100320.95;1599509;87;20445;-67
2022/09/04 03:23:15;;;;;;;12.23;8.73;;;;;;;11.87;76.27;100318.68;1627345;87;21681;-65
2022/09/04 03:26:02;;;;;;;11.75;8.28;;;;;;;11.94;76.78;100321.11;1629579;87;21550;-66
2022/09/04 03:28:49;;;;;;;12.58;8.58;;;;;;;11.91;77.24;100322.09;1626482;86;21668;-65
2022/09/04 03:31:34;;;;;;;12.75;8.75;;;;;;;11.89;77.37;100326.53;1632355;86;21913;-67
2022/09/04 03:34:28;;;;;;;12.10;9.00;;;;;;;11.85;77.65;100325.78;1624618;86;21684;-66
2022/09/04 03:37:31;;;;;;;12.93;8.73;;;;;;;11.86;79.26;100329.27;1620034;87;21571;-65
2022/09/04 03:40:15;;;;;;;12.78;8.75;;;;;;;11.91;79.92;100331.79;1624497;86;21515;-66
2022/09/04 03:42:59;;;;;;;14.38;8.85;;;;;;;11.92;80.52;100336.13;1628322;86;21637;-66
2022/09/04 03:45:40;;;;;;;15.32;9.50;;;;;;;11.96;80.87;100333.33;1621033;87;21798;-66
2022/09/04 03:48:39;;;;;;;11.78;9.45;;;;;;;12.02;80.09;100337.05;1624339;86;21554;-67
2022/09/04 03:51:30;;;;;;;12.05;8.60;;;;;;;12.03;79.81;100338.75;1578110;89;21103;-64
2022/09/04 03:54:32;;;;;;;11.10;9.30;;;;;;;12.06;80.43;100337.33;1618731;86;21531;-66
2022/09/04 03:57:32;;;;;;;13.98;9.25;;;;;;;12.10;81.33;100343.34;1612102;87;21069;-66
2022/09/04 04:00:17;;;;;;;15.95;9.20;;;;;;;12.18;81.50;100336.45;1619536;87;21749;-67
2022/09/04 04:03:01;;;;;;;14.60;8.78;;;;;;;12.25;81.93;100340.58;1634599;86;21573;-66
2022/09/04 04:05:43;;;;;;;15.10;9.75;;;;;;;12.32;81.56;100332.84;1613882;87;21030;-65
2022/09/04 04:08:35;;;;;;;15.78;9.15;;;;;;;12.39;81.40;100330.80;1612095;87;21495;-65
2022/09/04 04:11:23;;;;;;;14.45;9.65;;;;;;;12.49;81.19;100339.20;1621870;87;21640;-64
2022/09/04 04:14:22;;;;;;;12.58;9.05;;;;;;;12.59;81.33;100337.47;1620887;86;22072;-65
2022/09/04 04:17:11;;;;;;;14.40;9.30;;;;;;;12.70;81.01;100342.79;1627677;86;21699;-65
2022/09/04 04:20:04;;;;;;;15.03;9.53;;;;;;;12.76;80.72;100351.30;1622239;86;21589;-64
2022/09/04 04:23:00;;;;;;;11.55;8.83;;;;;;;12.80;80.83;100345.44;1623170;86;21848;-66
2022/09/04 04:26:06;;;;;;;11.27;8.30;;;;;;;12.93;81.10;100351.08;1626083;87;21521;-66
2022/09/04 04:29:29;;;;;;;11.30;8.20;;;;;;;13.01;80.56;100357.73;1624116;87;21795;-66
2022/09/04 04:32:36;;;;;;;16.80;8.58;;;;;;;13.13;80.57;100360.79;1578210;87;21636;-66
2022/09/04 04:35:35;;;;;;;;;;;;;;;13.25;80.51;100357.64;1617306;87;21632;-66
2022/09/04 04:38:23;;;;;;;12.55;7.47;;;;;;;13.34;84.86;100356.44;1617953;87;20438;-65
2022/09/04 04:41:29;;;;;;;10.70;8.48;;;;;;;13.44;80.23;100359.06;1621796;87;21498;-65
2022/09/04 04:44:14;;;;;;;10.40;7.78;;;;;;;13.58;79.80;100364.62;1623196;87;21827;-67
2022/09/04 04:46:56;;;;;;;11.83;8.88;;;;;;;13.71;79.26;100368.03;1624837;86;21434;-66
2022/09/04 04:49:47;;;;;;;13.70;9.15;;;;;;;13.81;79.02;100369.35;1622559;87;21638;-66
2022/09/04 04:52:30;;;;;;;10.60;8.45;;;;;;;13.91;78.78;100359.22;1617099;87;21460;-65
2022/09/04 04:55:21;;;;;;;12.25;8.38;;;;;;;14.05;78.62;100363.87;1623302;86;21447;-67
2022/09/04 04:58:11;;;;;;;11.53;8.00;;;;;;;14.13;78.14;100367.89;1622085;86;21557;-66
2022/09/04 05:00:54;;;;;;;10.88;8.00;;;;;;;14.30;77.67;100362.29;1617359;86;21506;-67
2022/09/04 05:03:35;;;;;;;10.20;8.40;;;;;;;14.40;77.39;100368.84;1598582;87;21656;-66
2022/09/04 05:06:22;;;;;;;14.63;7.72;;;;;;;14.55;76.52;100373.41;1618303;87;20976;-66
2022/09/04 05:09:20;;;;;;;11.90;7.40;;;;;;;14.62;75.54;100375.78;1624607;86;21621;-67
2022/09/04 05:12:03;;;;;;;11.30;7.05;;;;;;;14.71;74.89;100374.02;1616782;87;21856;-67
2022/09/04 05:14:47;;;;;;;10.48;7.85;;;;;;;14.85;74.07;100371.57;1611446;86;21472;-67
2022/09/04 05:17:37;;;;;;;11.53;7.40;;;;;;;15.00;73.41;100377.91;1611411;87;21626;-67
2022/09/04 05:20:29;;;;;;;8.65;7.70;;;;;;;15.07;73.35;100378.00;1614451;86;21735;-65
2022/09/04 05:23:21;;;;;;;9.95;7.30;;;;;;;15.17;73.19;100377.91;1605772;87;21669;-66
2022/09/04 05:26:13;;;;;;;11.10;7.10;;;;;;;15.32;72.55;100380.26;1615835;87;21841;-67
2022/09/04 05:29:22;;;;;;;8.03;6.15;;;;;;;15.39;71.90;100378.17;1618580;87;21582;-67
2022/09/04 05:32:27;;;;;;;7.67;5.78;;;;;;;15.50;70.93;100377.15;1619094;87;21488;-67
2022/09/04 05:35:21;;;;;;;7.10;6.20;;;;;;;15.66;70.37;100378.52;1641669;86;21606;-68
2022/09/04 05:38:28;;;;;;;7.37;6.00;;;;;;;15.76;70.16;100382.90;1635518;86;21511;-67
2022/09/04 05:41:23;;;;;;;9.20;5.87;;;;;;;15.91;69.38;100383.89;1637145;86;21900;-67
2022/09/04 05:44:38;;;;;;;8.08;5.58;;;;;;;16.06;68.18;100380.89;1640095;86;21439;-68
2022/09/04 05:47:29;;;;;;;6.42;5.00;;;;;;;16.19;67.05;100385.06;1643605;85;21623;-67
2022/09/04 05:50:31;;;;;;;5.60;4.62;;;;;;;16.30;65.72;100387.52;1639196;86;21667;-67
2022/09/04 05:53:26;;;;;;;7.12;4.42;;;;;;;16.41;65.04;100395.37;1641164;86;21603;-66
2022/09/04 05:56:17;;;;;;;5.97;4.03;;;;;;;16.54;64.25;100391.09;1638884;86;21656;-67
2022/09/04 05:58:58;;;;;;;4.92;3.70;;;;;;;16.64;63.32;100388.77;1638706;86;21636;-66
2022/09/04 06:02:03;;;;;;;4.33;3.60;;;;;;;16.70;62.43;100393.25;1635106;86;21182;-67
2022/09/04 06:04:41;;;;;;;5.05;4.20;;;;;;;16.81;62.60;100399.29;1644444;85;21615;-68
2022/09/04 06:07:36;;;;;;;5.35;3.95;;;;;;;16.93;62.06;100401.74;1636119;86;21561;-68
2022/09/04 06:10:23;;;;;;;4.40;4.00;;;;;;;17.03;61.38;100407.41;1643059;86;22131;-67
2022/09/04 06:13:12;;;;;;;5.37;3.60;;;;;;;17.10;60.83;100395.02;1636346;86;21456;-67
2022/09/04 06:16:09;;;;;;;4.20;3.60;;;;;;;17.20;59.94;100395.80;1633367;86;21481;-68
2022/09/04 06:18:51;;;;;;;5.83;2.90;;;;;;;17.34;59.31;100393.17;1636278;86;21518;-68
2022/09/04 06:21:51;;;;;;;4.67;3.33;;;;;;;17.47;58.00;100395.48;1639184;86;21570;-65
2022/09/04 06:24:43;;;;;;;5.50;3.08;;;;;;;17.56;57.79;100399.41;1597999;85;21835;-66
2022/09/04 06:27:16;;;;;;;3.12;2.70;;;;;;;17.75;57.02;100401.81;1610667;86;21526;-64
2022/09/04 06:30:10;;;;;;;4.08;2.70;;;;;;;17.85;55.60;100408.78;1633183;85;21455;-65
2022/09/04 06:32:54;;;;;;;2.95;2.40;;;;;;;17.96;55.13;100410.80;1638272;86;21563;-63
2022/09/04 06:35:53;;;;;;;3.37;2.42;;;;;;;18.08;54.45;100415.34;1606985;86;21622;-66
2022/09/04 06:38:26;;;;;;;4.25;2.58;;;;;;;18.15;53.66;100408.69;1589686;88;21808;-66
2022/09/04 06:41:19;;;;;;;4.05;2.40;;;;;;;18.25;53.38;100404.52;1593934;88;21444;-66
2022/09/04 06:44:01;;;;;;;3.40;2.30;;;;;;;18.41;52.05;100408.88;1637486;86;21515;-64
2022/09/04 06:46:44;;;;;;;3.72;2.55;;;;;;;18.52;51.04;100405.54;1637926;86;21648;-66
2022/09/04 06:49:28;;;;;;;3.45;2.52;;;;;;;18.64;50.14;100405.58;1643168;85;21514;-64
2022/09/04 06:52:18;;;;;;;1.85;1.75;;;;;;;18.73;49.66;100404.62;1638793;85;21828;-66
2022/09/04 06:55:02;;;;;;;2.05;1.80;;;;;;;18.85;48.66;100406.52;1604589;86;21142;-65
2022/09/04 06:57:49;;;;;;;5.08;2.00;;;;;;;18.97;48.32;100415.53;1642660;86;21724;-66
2022/09/04 07:00:18;;;;;;;4.17;2.35;;;;;;;18.99;47.35;100407.80;1641371;86;22071;-66
2022/09/04 07:02:51;;;;;;;1.70;1.52;;;;;;;19.05;46.74;100410.55;1624638;86;21490;-68
2022/09/04 07:05:32;;;;;;;3.35;1.60;;;;;;;19.13;47.28;100404.22;1637718;86;21590;-66
2022/09/04 07:08:31;;;;;;;2.22;1.70;;;;;;;19.26;46.33;100406.92;1604850;87;21512;-67
2022/09/04 07:11:39;;;;;;;2.40;1.32;;;;;;;19.41;45.32;100407.22;1590838;89;21531;-66
2022/09/04 07:14:42;;;;;;;1.55;1.40;;;;;;;19.50;44.70;100416.42;1588667;88;21616;-67
2022/09/04 07:17:26;;;;;;;2.02;1.32;;;;;;;19.60;43.91;100413.48;1643547;85;21581;-70
2022/09/04 07:20:30;;;;;;;2.90;1.15;;;;;;;19.70;43.61;100412.86;1637435;86;21835;-68
2022/09/04 07:23:23;;;;;;;1.20;1.10;;;;;;;19.73;42.89;100408.69;1593044;86;21577;-68
2022/09/04 07:26:10;;;;;;;5.72;1.60;;;;;;;19.75;42.69;100400.95;1629788;86;21389;-67
2022/09/04 07:29:11;;;;;;;3.05;1.57;;;;;;;19.80;42.73;100394.82;1638367;85;21100;-66
2022/09/04 07:31:46;;;;;;;2.80;1.70;;;;;;;19.87;42.32;100403.72;1633856;85;21589;-66
2022/09/04 07:34:27;;;;;;;2.87;2.00;;;;;;;19.96;42.11;100411.94;1628408;86;21995;-67
2022/09/04 07:37:46;;;;;;;3.98;1.75;;;;;;;20.04;42.01;100410.06;1649188;86;21431;-68
2022/09/04 07:40:22;;;;;;;3.05;1.72;;;;;;;20.19;41.59;100406.34;1644703;86;21585;-69
2022/09/04 07:43:06;;;;;;;2.30;1.65;;;;;;;20.32;41.06;100408.11;1646631;86;20993;-72
2022/09/04 07:45:49;;;;;;;3.85;1.70;;;;;;;20.34;40.92;100395.05;1652966;84;21720;-68
2022/09/04 07:48:42;;;;;;;1.52;1.42;;;;;;;20.43;40.63;100394.84;1638247;84;21900;-68
2022/09/04 07:51:21;;;;;;;4.80;1.57;;;;;;;20.57;39.97;100396.54;1635638;86;21610;-68
2022/09/04 07:54:17;;;;;;;3.30;1.50;;;;;;;20.69;39.94;100390.80;1635071;85;21580;-67
2022/09/04 07:57:10;;;;;;;2.50;1.40;;;;;;;20.80;39.52;100386.37;1686798;83;21545;-67
2022/09/04 08:00:07;;;;;;;5.42;2.02;;;;;;;20.95;39.43;100389.73;1654443;85;21541;-67
2022/09/04 08:03:10;;;;;;;1.90;1.22;;;;;;;21.09;39.31;100401.20;1631250;87;21951;-66
2022/09/04 08:06:01;;;;;;;6.08;1.98;;;;;;;21.27;39.17;100393.14;1681988;84;21574;-68
2022/09/04 08:08:49;;;;;;;1.90;1.27;;;;;;;21.45;38.76;100392.73;1685505;84;21526;-67
2022/09/04 08:11:50;;;;;;;2.72;1.40;;;;;;;21.60;38.30;100398.73;1688375;84;22230;-69
2022/09/04 08:14:23;;;;;;;2.67;1.65;;;;;;;21.76;37.88;100406.80;1634221;84;20969;-70
2022/09/04 08:17:35;;;;;;;2.05;1.60;;;;;;;21.81;37.50;100411.78;1687330;84;21896;-69
2022/09/04 08:20:17;;;;;;;2.12;1.45;;;;;;;21.80;37.17;100405.23;1686801;83;20957;-67
2022/09/04 08:23:13;;;;;;;1.65;1.22;;;;;;;21.57;37.19;100412.72;1685157;83;21648;-68
2022/09/04 08:25:57;;;;;;;1.47;1.17;;;;;;;21.45;36.95;100418.99;1688453;84;21650;-67
2022/09/04 08:28:58;;;;;;;3.45;1.30;;;;;;;21.31;37.07;100407.98;1688021;84;21565;-68
2022/09/04 08:31:30;;;;;;;2.50;1.27;;;;;;;21.32;37.31;100405.69;1681232;84;21742;-67
2022/09/04 08:34:07;;;;;;;3.62;1.40;;;;;;;21.41;37.40;100404.61;1684586;83;21552;-67
2022/09/04 08:36:44;;;;;;;2.45;1.20;;;;;;;21.43;37.15;100409.36;1686285;84;21634;-67
2022/09/04 08:39:31;;;;;;;4.67;1.70;;;;;;;21.35;37.00;100414.80;1685323;83;21075;-66
2022/09/04 08:42:50;;;;;;;7.08;1.20;;;;;;;21.23;37.05;100417.08;1685478;84;21481;-66
2022/09/04 08:45:50;;;;;;;2.92;1.47;;;;;;;21.17;37.01;100402.81;1684899;84;22242;-69
2022/09/04 08:48:47;;;;;;;2.85;1.25;;;;;;;21.26;37.21;100412.81;1675612;84;21414;-69
2022/09/04 08:52:00;;;;;;;1.82;1.32;;;;;;;21.44;36.51;100406.61;1636376;83;21644;-67
2022/09/04 08:54:48;;;;;;;1.40;1.22;;;;;;;21.62;35.83;100398.97;1683692;84;21489;-66
2022/09/04 08:57:36;;;;;;;2.50;1.55;;;;;;;21.61;35.77;100398.62;1659080;84;21684;-67
2022/09/04 09:00:19;;;;;;;2.00;1.47;;;;;;;21.52;35.87;100396.66;1658090;84;22018;-67
2022/09/04 09:03:21;;;;;;;2.25;1.65;;;;;;;21.37;35.85;100398.15;1613486;87;21489;-68
2022/09/04 09:06:09;;;;;;;3.08;1.30;;;;;;;21.29;36.30;100400.56;1638879;85;21505;-71
2022/09/04 09:09:21;;;;;;;2.95;1.52;;;;;;;21.21;36.43;100396.29;1662357;84;21538;-68
2022/09/04 09:12:27;;;;;;;3.70;1.50;;;;;;;21.15;36.48;100401.61;1633310;85;21470;-66
2022/09/04 09:15:39;;;;;;;1.57;1.40;;;;;;;21.17;36.81;100396.13;1630327;85;22028;-66
2022/09/04 09:18:40;;;;;;;2.62;1.60;;;;;;;21.18;36.45;100401.86;1635859;87;21056;-67
2022/09/04 09:21:37;;;;;;;2.05;1.60;;;;;;;21.14;36.33;100398.56;1608500;87;21534;-66
2022/09/04 09:24:50;;;;;;;2.15;1.17;;;;;;;21.25;36.28;100402.23;1591660;88;21600;-66
2022/09/04 09:28:13;;;;;;;1.42;1.30;;;;;;;21.35;35.71;100401.42;1659262;85;21020;-65
2022/09/04 09:31:11;;;;;;;1.57;1.47;;;;;;;21.42;35.73;100396.94;1660235;84;21836;-67
2022/09/04 09:34:21;;;;;;;3.98;1.62;;;;;;;21.56;35.73;100403.47;1629746;85;21520;-68
2022/09/04 09:37:11;;;;;;;1.55;1.27;;;;;;;21.66;35.55;100393.78;1662413;84;21454;-73
2022/09/04 09:40:24;;;;;;;4.08;1.30;;;;;;;21.74;35.25;100395.86;1654598;84;21497;-67
2022/09/04 09:43:25;;;;;;;1.95;1.15;;;;;;;21.83;34.59;100387.58;1632665;85;21493;-67
2022/09/04 09:46:14;;;;;;;2.45;1.30;;;;;;;22.00;34.12;100385.78;1608120;86;22128;-66
2022/09/04 09:49:05;;;;;;;2.15;1.10;;;;;;;22.12;34.05;100379.44;1633317;85;21528;-66
2022/09/04 09:51:56;;;;;;;3.80;1.20;;;;;;;22.30;33.29;100389.22;1583264;87;21564;-68
2022/09/04 09:55:00;;;;;;;1.25;1.15;;;;;;;22.46;32.99;100384.80;1627182;85;21480;-67
2022/09/04 09:58:13;;;;;;;1.52;1.32;;;;;;;22.81;32.41;100389.59;1598951;87;21467;-68
2022/09/04 10:01:20;;;;;;;2.42;1.30;;;;;;;22.81;32.41;100389.59;1660176;85;21608;-67
2022/09/04 10:04:19;;;;;;;1.60;1.00;;;;;;;22.99;31.94;100380.03;1654225;84;21065;-64
2022/09/04 10:07:23;;;;;;;1.10;1.00;;;;;;;23.10;31.79;100381.86;1678790;84;21537;-65
2022/09/04 10:10:32;;;;;;;1.95;1.10;;;;;;;23.18;31.51;100387.91;1682098;84;21467;-67
2022/09/04 10:13:07;;;;;;;;;;;;;;;23.19;31.22;100370.35;1630437;86;21448;-66
2022/09/04 10:16:01;;;;;;;0.75;0.70;;;;;;;23.24;29.90;100374.81;1647827;84;21751;-67
2022/09/04 10:19:03;;;;;;;1.75;1.17;;;;;;;23.28;31.60;100372.27;1688454;83;21607;-68
2022/09/04 10:22:07;;;;;;;1.12;1.02;;;;;;;23.47;30.99;100366.64;1635087;84;21019;-68
2022/09/04 10:24:56;;;;;;;3.50;1.20;;;;;;;23.55;30.68;100366.86;1687799;83;21502;-70
2022/09/04 10:27:53;;;;;;;1.27;1.02;;;;;;;23.59;30.55;100368.29;1686128;83;21559;-70
2022/09/04 10:30:22;;;;;;;1.72;1.35;;;;;;;23.54;30.61;100379.06;1691461;83;21781;-71
2022/09/04 10:33:19;;;;;;;1.70;1.10;;;;;;;23.35;30.67;100372.58;1684346;83;21542;-72
2022/09/04 10:36:11;;;;;;;3.03;1.00;;;;;;;23.35;31.01;100366.37;1679763;83;21478;-74
2022/09/04 10:40:34;;;;;;;1.32;1.20;;;;;;;23.33;31.09;100371.36;1673529;84;21014;-73
2022/09/04 10:41:40;;;;;;;6.37;1.37;;;;;;;23.19;30.99;100373.50;1678895;84;20999;-73
2022/09/04 10:44:48;;;;;;;1.52;1.42;;;;;;;23.02;30.87;100376.23;1690879;83;21828;-72
2022/09/04 10:47:50;;;;;;;1.20;1.10;;;;;;;22.94;31.49;100379.55;1689125;83;21086;-71
2022/09/04 10:50:31;;;;;;;2.52;1.25;;;;;;;22.72;31.27;100383.17;1684168;83;21530;-73
2022/09/04 10:53:51;;;;;;;1.30;1.20;;;;;;;22.55;31.63;100384.05;1683826;83;21510;-72
2022/09/04 10:56:34;;;;;;;1.30;1.20;;;;;;;22.71;31.36;100371.58;1686845;83;21802;-69
2022/09/04 10:59:14;;;;;;;1.30;1.20;;;;;;;23.12;30.34;100378.05;1689216;83;21773;-72
2022/09/04 11:02:21;;;;;;;1.32;1.15;;;;;;;23.31;30.22;100373.83;1682215;83;21574;-71
2022/09/04 11:05:14;;;;;;;3.22;1.52;;;;;;;23.31;30.22;100373.83;1681780;83;21550;-70
2022/09/04 11:08:17;;;;;;;1.45;1.35;;;;;;;23.48;29.89;100370.55;1673923;83;21460;-70
2022/09/04 11:11:25;;;;;;;1.95;1.07;;;;;;;23.79;29.28;100371.11;1675288;83;21030;-71
2022/09/04 11:14:27;;;;;;;3.25;1.40;;;;;;;23.79;29.28;100371.11;1676461;83;21917;-69
2022/09/04 11:17:13;;;;;;;1.22;1.10;;;;;;;23.89;29.61;100364.81;1682619;83;21588;-70
2022/09/04 11:20:38;;;;;;;1.27;1.10;;;;;;;23.89;29.61;100364.81;1649516;83;21456;-69
2022/09/04 11:23:30;;;;;;;3.60;1.10;;;;;;;23.90;29.05;100346.85;1678957;83;21582;-69
2022/09/04 11:26:46;;;;;;;3.58;1.20;;;;;;;23.94;29.14;100341.59;1677898;83;20952;-69
2022/09/04 11:29:54;;;;;;;1.47;0.90;;;;;;;24.10;28.75;100347.80;1678549;83;21745;-69
2022/09/04 11:32:50;;;;;;;1.30;1.10;;;;;;;24.10;28.45;100349.14;1677357;83;21498;-68
2022/09/04 11:35:58;;;;;;;2.40;0.90;;;;;;;23.88;28.59;100347.48;1677199;83;21577;-68
2022/09/04 11:38:50;;;;;;;0.98;0.90;;;;;;;23.79;28.73;100349.63;1670631;83;21094;-68
2022/09/04 11:41:53;;;;;;;2.65;0.90;;;;;;;23.68;28.79;100346.53;1680889;83;21600;-68
2022/09/04 11:44:59;;;;;;;1.45;1.10;;;;;;;23.76;28.81;100344.02;1666636;83;21976;-68
2022/09/04 11:48:03;;;;;;;1.20;0.80;;;;;;;23.84;28.36;100340.69;1680204;83;21039;-70
2022/09/04 11:51:15;;;;;;;1.52;1.20;;;;;;;24.07;28.34;100342.22;1676117;83;21529;-69
2022/09/04 11:53:53;;;;;;;2.30;1.00;;;;;;;24.34;28.23;100340.73;1675362;83;21507;-68
2022/09/04 11:56:51;;;;;;;2.08;1.00;;;;;;;24.31;28.05;100336.13;1680778;83;21682;-68
2022/09/04 12:00:02;;;;;;;3.15;1.42;;;;;;;24.02;28.30;100340.42;1680258;83;21829;-72
2022/09/04 12:06:08;;;;;;;1.40;1.10;;;;;;;23.72;28.81;100346.61;1654537;84;21620;-70
2022/09/04 12:10:41;;;;;;;2.42;1.07;;;;;;;22.80;30.18;100343.17;1777415;78;23135;-69
2022/09/04 12:13:38;;;;;;;2.90;1.15;;;;;;;23.31;29.41;100338.95;1744786;80;20983;-67
2022/09/04 12:16:52;;;;;;;1.22;0.80;;;;;;;23.43;29.42;100337.03;1740579;80;21578;-69
2022/09/04 12:19:43;;;;;;;1.10;1.00;;;;;;;23.61;28.86;100329.25;1742200;80;20998;-67
2022/09/04 12:22:49;;;;;;;1.10;1.00;;;;;;;23.88;28.18;100323.31;1700562;81;21529;-68
2022/09/04 12:25:45;;;;;;;0.90;0.90;;;;;;;24.09;27.88;100326.81;1708945;81;21566;-66
2022/09/04 12:28:44;;;;;;;1.05;0.90;;;;;;;24.13;27.76;100326.52;1707065;83;21590;-66
2022/09/04 12:31:55;;;;;;;1.00;0.90;;;;;;;24.02;27.76;100319.44;1686264;83;21779;-64
2022/09/04 12:34:43;;;;;;;0.95;0.90;;;;;;;24.01;28.45;100321.25;1710536;81;21526;-66
2022/09/04 12:37:42;;;;;;;1.37;0.90;;;;;;;24.01;28.55;100321.25;1674759;82;21514;-67
2022/09/04 12:40:24;;;;;;;1.22;1.00;;;;;;;24.14;28.51;100328.23;1690077;83;21525;-68
2022/09/04 12:43:15;;;;;;;1.00;0.85;;;;;;;24.47;28.29;100317.14;1688852;82;21455;-69
2022/09/04 12:46:04;;;;;;;1.10;1.00;;;;;;;24.47;28.29;100317.14;1694808;83;22181;-68
2022/09/04 12:49:17;;;;;;;1.30;1.20;;;;;;;25.01;27.63;100315.41;1682581;83;21585;-71
2022/09/04 12:52:16;;;;;;;2.12;1.17;;;;;;;25.21;27.42;100317.59;1701145;81;21573;-69
2022/09/04 12:54:54;;;;;;;1.20;1.10;;;;;;;25.21;27.42;100317.59;1711222;81;21085;-67
2022/09/04 12:58:05;;;;;;;1.52;1.20;;;;;;;25.37;27.12;100315.67;1685597;81;21593;-68
2022/09/04 13:00:39;;;;;;;1.60;0.95;;;;;;;25.37;27.11;100315.20;1710163;83;21814;-67
2022/09/04 13:03:28;;;;;;;1.00;0.90;;;;;;;25.18;26.92;100314.67;1700604;82;21585;-67
2022/09/04 13:06:39;;;;;;;1.05;0.95;;;;;;;24.96;27.28;100316.33;1701254;83;21490;-68
2022/09/04 13:09:35;;;;;;;2.10;0.85;;;;;;;24.70;27.24;100314.73;1685398;83;21585;-67
2022/09/04 13:12:19;;;;;;;1.65;1.07;;;;;;;24.48;27.72;100316.13;1729160;80;21716;-69
2022/09/04 13:15:07;;;;;;;1.17;0.82;;;;;;;24.36;27.63;100312.39;1730588;80;21829;-71
2022/09/04 13:18:02;;;;;;;;;;;;;;;24.73;27.35;100303.16;1736995;79;21594;-70
2022/09/04 13:21:11;;;;;;;1.10;1.00;;;;;;;25.46;25.44;100300.00;1737736;80;20437;-69
2022/09/04 13:24:09;;;;;;;1.50;0.80;;;;;;;26.31;26.73;100294.54;1728389;80;21459;-70
2022/09/04 13:26:51;;;;;;;0.95;0.80;;;;;;;27.13;26.21;100305.63;1735112;80;21633;-72